Time;durP1;ratioP1;P1;durP2;ratioP2;P2;SDS_P1;SDS_P2;PMS_P1;PMS_P2;Temp;Humidity;BMP_temperature;BMP_pressure;BME280_temperature;BME280_humidity;BME280_pressure;Samples;Min_cycle;Max_cycle;Signal;HPM_P1;HPM_P2
2023/04/14 00:00:18;;;;;;;9.43;5.27;;;4.70;99.90;;;;;;4878562;29;20286;-73
2023/04/14 00:02:46;;;;;;;8.73;4.77;;;4.70;99.90;;;;;;4878639;29;20308;-76
2023/04/14 00:05:15;;;;;;;9.73;5.83;;;4.70;99.90;;;;;;4878799;29;20682;-75
2023/04/14 00:07:45;;;;;;;10.13;5.47;;;4.70;99.90;;;;;;4879304;29;20261;-73
2023/04/14 00:10:13;;;;;;;9.87;6.23;;;4.60;99.90;;;;;;4878771;29;20213;-75
2023/04/14 00:12:41;;;;;;;12.07;6.77;;;4.70;99.90;;;;;;4878634;29;20627;-77
2023/04/14 00:15:10;;;;;;;10.87;6.63;;;4.70;99.90;;;;;;4878284;29;20225;-76
2023/04/14 00:17:38;;;;;;;9.33;6.50;;;4.70;99.90;;;;;;4878761;29;20218;-76
2023/04/14 00:20:08;;;;;;;11.07;6.53;;;4.60;99.90;;;;;;4878588;29;20234;-77
2023/04/14 00:22:36;;;;;;;11.53;6.43;;;4.60;99.90;;;;;;4887178;29;20240;-75
2023/04/14 00:25:06;;;;;;;11.53;6.37;;;4.70;99.90;;;;;;4888649;29;20221;-74
2023/04/14 00:27:34;;;;;;;11.47;6.60;;;4.60;99.90;;;;;;4879068;29;20626;-74
2023/04/14 00:30:04;;;;;;;11.07;6.30;;;4.60;99.90;;;;;;4879159;29;20220;-76
2023/04/14 00:32:32;;;;;;;14.03;6.27;;;4.60;99.90;;;;;;4878605;29;20306;-75
2023/04/14 00:35:02;;;;;;;9.57;6.43;;;4.60;99.90;;;;;;4878246;29;20661;-76
2023/04/14 00:37:30;;;;;;;11.10;6.67;;;4.60;99.90;;;;;;4880328;29;20744;-73
2023/04/14 00:39:58;;;;;;;10.20;6.77;;;4.60;99.90;;;;;;4882853;29;20304;-76
2023/04/14 00:42:30;;;;;;;9.67;6.30;;;4.60;99.90;;;;;;4886642;29;20214;-76
2023/04/14 00:44:59;;;;;;;9.50;6.40;;;4.60;99.90;;;;;;4897528;29;20690;-77
2023/04/14 00:47:27;;;;;;;9.50;6.23;;;4.60;99.90;;;;;;4888821;29;20218;-73
2023/04/14 00:49:56;;;;;;;11.03;7.00;;;4.60;99.90;;;;;;4891407;29;20677;-73
2023/04/14 00:52:26;;;;;;;9.83;6.20;;;4.60;99.90;;;;;;4901485;29;20210;-76
2023/04/14 00:54:54;;;;;;;13.93;6.90;;;4.60;99.90;;;;;;4884435;29;20650;-78
2023/04/14 00:57:23;;;;;;;9.20;6.80;;;4.60;99.90;;;;;;4878514;29;20235;-77
2023/04/14 00:59:53;;;;;;;9.53;6.60;;;4.60;99.90;;;;;;4878272;29;20221;-75
2023/04/14 01:02:21;;;;;;;13.13;6.97;;;4.50;99.90;;;;;;4878328;29;20324;-78
2023/04/14 01:04:50;;;;;;;11.10;6.90;;;4.50;99.90;;;;;;4878153;29;20725;-75
2023/04/14 01:07:23;;;;;;;8.90;6.53;;;4.50;99.90;;;;;;4876118;29;20720;-78
2023/04/14 01:09:52;;;;;;;9.77;6.60;;;4.50;99.90;;;;;;4876598;29;20301;-73
2023/04/14 01:12:36;;;;;;;9.67;6.73;;;4.50;99.90;;;;;;4876886;29;20257;-77
2023/04/14 01:15:12;;;;;;;8.30;5.90;;;4.50;99.90;;;;;;4876163;29;20290;-76
2023/04/14 01:17:45;;;;;;;7.73;5.67;;;4.50;99.90;;;;;;4876400;29;20589;-77
2023/04/14 01:20:21;;;;;;;8.80;5.53;;;4.50;99.90;;;;;;4877453;29;20213;-76
2023/04/14 01:22:59;;;;;;;7.93;4.70;;;4.40;99.90;;;;;;4895010;29;20652;-77
2023/04/14 01:25:57;;;;;;;5.90;3.70;;;4.50;99.90;;;;;;4893265;29;20245;-77
2023/04/14 01:28:42;;;;;;;9.80;3.83;;;4.50;99.90;;;;;;4896559;29;20238;-73
2023/04/14 01:31:20;;;;;;;6.73;3.10;;;4.40;99.90;;;;;;4896811;29;20194;-76
2023/04/14 01:33:56;;;;;;;4.93;2.77;;;4.40;99.90;;;;;;4894014;29;20666;-74
2023/04/14 01:36:30;;;;;;;3.63;2.40;;;4.40;99.90;;;;;;4897931;29;20261;-74
2023/04/14 01:39:02;;;;;;;6.33;2.90;;;4.30;99.90;;;;;;4895215;29;20224;-73
2023/04/14 01:41:31;;;;;;;4.57;2.70;;;4.30;99.90;;;;;;4892025;29;20214;-74
2023/04/14 01:44:02;;;;;;;2.83;2.23;;;4.30;99.90;;;;;;4911256;29;20209;-73
2023/04/14 01:46:34;;;;;;;4.30;2.67;;;4.30;99.90;;;;;;4911412;29;20568;-73
2023/04/14 01:49:03;;;;;;;3.77;2.70;;;4.30;99.90;;;;;;4908127;29;20711;-74
2023/04/14 01:51:33;;;;;;;4.40;2.60;;;4.30;99.90;;;;;;4904227;29;20702;-74
2023/04/14 01:54:03;;;;;;;3.57;2.70;;;4.30;99.90;;;;;;4882938;29;20218;-75
2023/04/14 01:56:33;;;;;;;4.97;2.90;;;4.30;99.90;;;;;;4896731;29;20249;-76
2023/04/14 01:59:02;;;;;;;5.03;3.20;;;4.30;99.90;;;;;;4895753;29;20225;-75
2023/04/14 02:01:34;;;;;;;5.40;3.33;;;4.30;99.90;;;;;;4881542;29;20328;-78
2023/04/14 02:04:03;;;;;;;6.43;3.37;;;4.30;99.90;;;;;;4880921;29;20294;-78
2023/04/14 02:06:32;;;;;;;5.57;3.40;;;4.30;99.90;;;;;;4881140;29;20242;-77
2023/04/14 02:09:01;;;;;;;5.23;3.40;;;4.30;99.90;;;;;;4880795;29;20228;-75
2023/04/14 02:11:30;;;;;;;6.70;3.77;;;4.30;99.90;;;;;;4881038;29;20218;-76
2023/04/14 02:14:00;;;;;;;4.23;3.37;;;4.30;99.90;;;;;;4880675;29;20560;-80
2023/04/14 02:16:30;;;;;;;5.20;3.70;;;4.30;99.90;;;;;;4880857;29;20237;-76
2023/04/14 02:19:00;;;;;;;4.53;3.80;;;4.20;99.90;;;;;;4883417;29;20213;-78
2023/04/14 02:21:31;;;;;;;5.03;3.93;;;4.30;99.90;;;;;;4899065;29;20239;-77
2023/04/14 02:23:59;;;;;;;5.80;3.80;;;4.30;99.90;;;;;;4898795;29;20217;-79
2023/04/14 02:26:31;;;;;;;6.17;4.27;;;4.30;99.90;;;;;;4898786;29;20217;-76
2023/04/14 02:29:06;;;;;;;6.60;4.40;;;4.30;99.90;;;;;;4880674;29;20209;-78
2023/04/14 02:31:39;;;;;;;7.90;4.90;;;4.30;99.90;;;;;;4880767;29;20196;-76
2023/04/14 02:34:10;;;;;;;7.13;5.13;;;4.30;99.90;;;;;;4897875;29;20214;-76
2023/04/14 02:36:46;;;;;;;7.50;5.00;;;4.30;99.90;;;;;;4880125;29;20297;-77
2023/04/14 02:39:19;;;;;;;8.63;5.10;;;4.30;99.90;;;;;;4879615;29;20198;-76
2023/04/14 02:41:53;;;;;;;8.90;5.47;;;4.20;99.90;;;;;;4885675;29;20371;-72
2023/04/14 02:44:25;;;;;;;7.07;5.10;;;4.20;99.90;;;;;;4896588;29;20223;-73
2023/04/14 02:47:02;;;;;;;6.87;5.30;;;4.20;99.90;;;;;;4882080;29;20194;-75
2023/04/14 02:49:34;;;;;;;9.73;5.80;;;4.20;99.90;;;;;;4881668;29;20238;-74
2023/04/14 02:52:05;;;;;;;8.83;5.90;;;4.20;99.90;;;;;;4880388;29;20645;-79
2023/04/14 02:54:35;;;;;;;9.13;6.07;;;4.20;99.90;;;;;;4880328;29;20677;-76
2023/04/14 02:57:06;;;;;;;7.73;5.40;;;4.20;99.90;;;;;;4880171;29;20235;-76
2023/04/14 02:59:35;;;;;;;7.97;6.17;;;4.20;99.90;;;;;;4880306;29;20219;-78
2023/04/14 03:02:05;;;;;;;7.50;6.03;;;4.20;99.90;;;;;;4893528;29;20271;-79
2023/04/14 03:04:36;;;;;;;9.03;6.03;;;4.20;99.90;;;;;;4898704;29;20270;-74
2023/04/14 03:07:06;;;;;;;9.47;6.37;;;4.20;99.90;;;;;;4908617;29;20280;-79
2023/04/14 03:09:35;;;;;;;8.67;5.83;;;4.20;99.90;;;;;;4892834;29;20297;-78
2023/04/14 03:12:05;;;;;;;7.10;5.30;;;4.20;99.90;;;;;;4879426;29;20211;-77
2023/04/14 03:14:35;;;;;;;7.43;5.53;;;4.20;99.90;;;;;;4879836;29;20224;-78
2023/04/14 03:17:07;;;;;;;6.73;5.23;;;4.20;99.90;;;;;;4879605;29;20246;-78
2023/04/14 03:19:36;;;;;;;8.07;5.47;;;4.30;99.90;;;;;;4884907;29;20217;-77
2023/04/14 03:22:05;;;;;;;6.70;4.20;;;4.20;99.90;;;;;;4879482;29;20238;-78
2023/04/14 03:24:34;;;;;;;6.53;4.23;;;4.20;99.90;;;;;;4879816;29;20214;-79
2023/04/14 03:27:06;;;;;;;6.90;4.20;;;4.20;99.90;;;;;;4879778;29;20221;-79
2023/04/14 03:29:39;;;;;;;4.27;3.70;;;4.20;99.90;;;;;;4879539;29;20218;-77
2023/04/14 03:32:10;;;;;;;4.67;3.37;;;4.20;99.90;;;;;;4879321;29;20195;-75
2023/04/14 03:34:42;;;;;;;4.80;3.50;;;4.20;99.90;;;;;;4879728;29;20209;-74
2023/04/14 03:37:11;;;;;;;4.93;3.20;;;4.20;99.90;;;;;;4879530;29;20315;-74
2023/04/14 03:39:40;;;;;;;5.47;3.00;;;4.20;99.90;;;;;;4879176;29;20716;-74
2023/04/14 03:42:09;;;;;;;4.13;3.40;;;4.20;99.90;;;;;;4879024;29;20238;-75
2023/04/14 03:44:41;;;;;;;6.17;3.50;;;4.20;99.90;;;;;;4886778;29;20210;-73
2023/04/14 03:47:12;;;;;;;4.20;3.07;;;4.20;99.90;;;;;;4878796;29;20210;-76
2023/04/14 03:49:45;;;;;;;4.83;3.20;;;4.20;99.90;;;;;;4878071;29;20222;-74
2023/04/14 03:52:15;;;;;;;4.53;3.47;;;4.20;99.90;;;;;;4878736;29;20206;-72
2023/04/14 03:54:46;;;;;;;5.43;3.37;;;4.20;99.90;;;;;;4879038;29;20664;-75
2023/04/14 03:57:16;;;;;;;5.30;3.80;;;4.20;99.90;;;;;;4878665;29;20238;-74
2023/04/14 03:59:46;;;;;;;6.60;3.93;;;4.20;99.90;;;;;;4878727;29;20218;-75
2023/04/14 04:02:18;;;;;;;4.80;4.10;;;4.30;99.90;;;;;;4877922;29;20236;-77
2023/04/14 04:04:48;;;;;;;6.53;4.63;;;4.30;99.90;;;;;;4878552;29;20246;-75
2023/04/14 04:07:19;;;;;;;6.53;4.87;;;4.30;99.90;;;;;;4878954;29;20214;-74
2023/04/14 04:09:48;;;;;;;9.07;5.80;;;4.30;99.90;;;;;;4878772;29;20214;-77
2023/04/14 04:12:19;;;;;;;7.63;5.97;;;4.30;99.90;;;;;;4879044;29;20218;-75
2023/04/14 04:14:48;;;;;;;12.67;9.37;;;4.30;99.90;;;;;;4878624;29;20190;-76
2023/04/14 04:17:19;;;;;;;9.87;6.90;;;4.30;99.90;;;;;;4889492;29;20209;-79
2023/04/14 04:19:49;;;;;;;9.73;7.77;;;4.40;99.90;;;;;;4879822;29;20214;-76
2023/04/14 04:22:20;;;;;;;11.20;9.10;;;4.30;99.90;;;;;;4878115;29;20260;-79
2023/04/14 04:24:50;;;;;;;10.37;9.07;;;4.30;99.90;;;;;;4878627;29;20218;-77
2023/04/14 04:27:19;;;;;;;9.23;8.20;;;4.40;99.90;;;;;;4878467;29;20673;-77
2023/04/14 04:29:55;;;;;;;8.43;7.50;;;4.30;99.90;;;;;;4878741;29;20640;-80
2023/04/14 04:32:28;;;;;;;9.13;7.93;;;4.40;99.90;;;;;;4878652;29;20210;-78
2023/04/14 04:34:57;;;;;;;9.87;7.47;;;4.40;99.90;;;;;;4879194;29;20195;-76
2023/04/14 04:37:27;;;;;;;9.03;7.50;;;4.30;99.90;;;;;;4881788;29;20224;-78
2023/04/14 04:39:57;;;;;;;6.97;6.13;;;4.30;99.90;;;;;;4881807;29;20217;-79
2023/04/14 04:42:26;;;;;;;7.30;4.83;;;4.20;99.90;;;;;;4881754;29;20306;-80
2023/04/14 04:44:54;;;;;;;5.97;4.30;;;4.20;99.90;;;;;;4880269;29;20241;-77
2023/04/14 04:47:24;;;;;;;5.47;4.40;;;4.10;99.90;;;;;;4878675;29;20230;-77
2023/04/14 04:49:53;;;;;;;5.53;4.73;;;4.20;99.90;;;;;;4887099;29;20210;-76
2023/04/14 04:52:21;;;;;;;7.27;5.20;;;4.20;99.90;;;;;;4894012;29;20210;-74
2023/04/14 04:54:51;;;;;;;7.47;6.30;;;4.20;99.90;;;;;;4892471;29;20225;-76
2023/04/14 04:57:19;;;;;;;9.10;6.73;;;4.30;99.90;;;;;;4895836;29;20234;-74
2023/04/14 04:59:47;;;;;;;8.03;7.23;;;4.20;99.90;;;;;;4884096;29;20238;-76
2023/04/14 05:02:15;;;;;;;10.60;8.43;;;4.30;99.90;;;;;;4887731;29;20312;-79
2023/04/14 05:04:43;;;;;;;9.60;7.80;;;4.30;99.90;;;;;;4882329;29;20225;-79
2023/04/14 05:07:16;;;;;;;9.13;7.80;;;4.30;99.90;;;;;;4882302;29;20229;-73
2023/04/14 05:09:44;;;;;;;9.10;8.20;;;4.30;99.90;;;;;;4882266;29;20633;-76
2023/04/14 05:12:12;;;;;;;9.97;8.93;;;4.30;99.90;;;;;;4882117;29;20565;-76
2023/04/14 05:14:40;;;;;;;9.70;8.43;;;4.30;99.90;;;;;;4885971;29;20221;-74
2023/04/14 05:17:08;;;;;;;10.63;9.20;;;4.40;99.90;;;;;;4907511;29;20300;-77
2023/04/14 05:19:37;;;;;;;10.97;9.50;;;4.40;99.90;;;;;;4901578;29;20217;-76
2023/04/14 05:22:05;;;;;;;10.80;9.70;;;4.50;99.90;;;;;;4883790;29;20210;-78
2023/04/14 05:24:35;;;;;;;12.67;11.20;;;4.50;99.90;;;;;;4890340;29;20601;-77
2023/04/14 05:27:03;;;;;;;11.87;10.37;;;4.60;99.90;;;;;;4894886;29;20210;-78
2023/04/14 05:29:41;;;;;;;14.00;11.40;;;4.50;99.90;;;;;;4894013;29;20206;-77
2023/04/14 05:32:10;;;;;;;13.07;10.83;;;4.50;99.90;;;;;;4897505;29;20237;-76
2023/04/14 05:34:38;;;;;;;13.20;11.87;;;4.60;99.90;;;;;;4890091;29;20662;-76
2023/04/14 05:37:06;;;;;;;16.10;13.03;;;4.60;99.90;;;;;;4891757;29;20564;-75
2023/04/14 05:39:35;;;;;;;15.03;13.53;;;4.60;99.90;;;;;;4891269;29;20205;-78
2023/04/14 05:42:04;;;;;;;15.33;13.80;;;4.70;99.90;;;;;;4891777;29;20372;-79
2023/04/14 05:44:33;;;;;;;14.63;13.03;;;4.70;99.90;;;;;;4888755;29;20229;-78
2023/04/14 05:47:01;;;;;;;15.63;13.63;;;4.70;99.90;;;;;;4891380;29;20210;-79
2023/04/14 05:49:29;;;;;;;15.67;13.60;;;4.70;99.90;;;;;;4891961;29;20205;-78
2023/04/14 05:51:57;;;;;;;16.80;14.00;;;4.70;99.90;;;;;;4892594;29;20269;-76
2023/04/14 05:54:25;;;;;;;17.03;15.17;;;4.80;99.90;;;;;;4895248;29;20206;-78
2023/04/14 05:56:55;;;;;;;14.60;13.20;;;4.80;99.90;;;;;;4881266;29;20264;-76
2023/04/14 05:59:23;;;;;;;14.97;13.23;;;4.80;99.90;;;;;;4884515;29;20233;-77
2023/04/14 06:01:52;;;;;;;14.13;12.07;;;4.80;99.90;;;;;;4899647;29;20317;-77
2023/04/14 06:04:20;;;;;;;12.90;11.60;;;4.80;99.90;;;;;;4900032;29;20583;-77
2023/04/14 06:06:48;;;;;;;12.97;11.67;;;4.90;99.90;;;;;;4901523;29;20830;-77
2023/04/14 06:09:16;;;;;;;12.93;11.60;;;4.90;99.90;;;;;;4882983;29;20215;-77
2023/04/14 06:11:44;;;;;;;11.50;10.30;;;4.90;99.90;;;;;;4881144;29;20228;-77
2023/04/14 06:14:14;;;;;;;12.57;11.27;;;4.90;99.90;;;;;;4888709;29;20220;-77
2023/04/14 06:16:42;;;;;;;12.83;11.50;;;4.90;99.90;;;;;;4896659;29;20218;-78
2023/04/14 06:19:10;;;;;;;12.03;10.73;;;4.90;99.90;;;;;;4880760;29;20230;-78
2023/04/14 06:21:39;;;;;;;12.00;10.80;;;4.90;99.90;;;;;;4883232;29;20364;-74
2023/04/14 06:24:07;;;;;;;12.03;10.73;;;5.00;99.90;;;;;;4882059;29;20234;-75
2023/04/14 06:26:36;;;;;;;12.00;10.80;;;5.00;99.90;;;;;;4880758;29;20219;-75
2023/04/14 06:29:06;;;;;;;13.03;10.13;;;5.00;99.90;;;;;;4881408;29;20229;-75
2023/04/14 06:31:35;;;;;;;10.17;8.80;;;5.10;99.90;;;;;;4881165;29;20206;-79
2023/04/14 06:34:04;;;;;;;11.20;9.47;;;5.20;99.90;;;;;;4881228;29;20652;-76
2023/04/14 06:36:32;;;;;;;11.63;9.83;;;5.20;99.90;;;;;;4881104;29;20214;-77
2023/04/14 06:39:00;;;;;;;10.30;9.27;;;5.20;99.90;;;;;;4881095;29;20253;-77
2023/04/14 06:41:29;;;;;;;9.57;8.20;;;5.20;99.90;;;;;;4881192;29;20210;-77
2023/04/14 06:43:57;;;;;;;9.47;8.50;;;5.10;99.90;;;;;;4881684;29;20268;-77
2023/04/14 06:46:25;;;;;;;9.27;8.37;;;5.20;99.90;;;;;;4899504;29;20240;-76
2023/04/14 06:48:55;;;;;;;9.93;8.50;;;5.20;99.90;;;;;;4916715;29;20551;-74
2023/04/14 06:51:23;;;;;;;8.67;7.87;;;5.20;99.90;;;;;;4889443;29;20570;-77
2023/04/14 06:53:51;;;;;;;9.07;8.13;;;5.20;99.90;;;;;;4887994;29;20221;-75
2023/04/14 06:56:19;;;;;;;9.00;8.10;;;5.20;99.90;;;;;;4891325;29;20210;-74
2023/04/14 06:58:49;;;;;;;9.20;8.07;;;5.20;99.90;;;;;;4891825;29;20235;-77
2023/04/14 07:01:17;;;;;;;9.13;7.77;;;5.20;99.90;;;;;;4890381;29;20680;-78
2023/04/14 07:03:46;;;;;;;8.40;7.47;;;5.30;99.90;;;;;;4890219;29;20482;-77
2023/04/14 07:06:16;;;;;;;8.77;7.07;;;5.20;99.90;;;;;;4891257;29;20580;-76
2023/04/14 07:08:45;;;;;;;8.33;7.53;;;5.20;99.90;;;;;;4890031;29;20210;-77
2023/04/14 07:11:14;;;;;;;8.33;7.47;;;5.20;99.90;;;;;;4890642;29;20217;-76
2023/04/14 07:13:42;;;;;;;8.10;7.40;;;5.30;99.90;;;;;;4891991;29;20237;-75
2023/04/14 07:16:10;;;;;;;8.77;7.23;;;5.50;99.90;;;;;;4889795;29;20302;-78
2023/04/14 07:18:38;;;;;;;7.10;6.13;;;5.50;99.90;;;;;;4896046;29;20650;-78
2023/04/14 07:21:07;;;;;;;8.43;6.30;;;5.50;99.90;;;;;;4897179;29;20221;-77
2023/04/14 07:23:37;;;;;;;5.80;4.90;;;5.50;99.90;;;;;;4883379;29;20744;-78
2023/04/14 07:26:06;;;;;;;5.07;4.53;;;5.40;99.90;;;;;;4879532;29;20279;-76
2023/04/14 07:28:34;;;;;;;6.97;4.43;;;5.40;99.90;;;;;;4880011;29;20214;-77
2023/04/14 07:31:08;;;;;;;6.27;4.77;;;5.40;99.90;;;;;;4885275;29;20221;-78
2023/04/14 07:33:36;;;;;;;8.30;5.53;;;5.70;99.90;;;;;;4898179;29;20217;-78
2023/04/14 07:36:06;;;;;;;5.07;3.97;;;6.10;99.90;;;;;;4898223;29;20211;-77
2023/04/14 07:38:35;;;;;;;30.63;17.30;;;6.30;99.90;;;;;;4892202;29;20207;-76
2023/04/14 07:41:05;;;;;;;8.47;5.73;;;6.20;99.90;;;;;;4879911;29;20533;-77
2023/04/14 07:43:34;;;;;;;18.93;12.17;;;6.00;99.90;;;;;;4879007;29;20220;-78
2023/04/14 07:46:03;;;;;;;6.63;5.60;;;6.00;99.90;;;;;;4880961;29;20222;-78
2023/04/14 07:48:33;;;;;;;8.33;6.00;;;5.90;99.90;;;;;;4898195;29;20361;-78
2023/04/14 07:51:01;;;;;;;2.80;2.60;;;5.90;99.90;;;;;;4898496;29;20241;-75
2023/04/14 07:53:30;;;;;;;4.80;3.97;;;6.10;99.90;;;;;;4898751;29;20213;-75
2023/04/14 07:56:00;;;;;;;3.40;3.10;;;6.00;99.90;;;;;;4889883;29;20210;-78
2023/04/14 07:58:28;;;;;;;4.70;3.00;;;6.10;99.90;;;;;;4879512;29;20266;-76
2023/04/14 08:00:57;;;;;;;3.60;3.13;;;6.10;99.90;;;;;;4891343;29;20209;-76
2023/04/14 08:03:25;;;;;;;5.23;4.00;;;6.20;99.90;;;;;;4897902;29;20206;-73
2023/04/14 08:05:54;;;;;;;5.07;3.80;;;6.10;99.90;;;;;;4879078;29;20306;-75
2023/04/14 08:08:22;;;;;;;4.83;4.17;;;6.20;99.90;;;;;;4879792;29;20226;-74
2023/04/14 08:10:51;;;;;;;4.90;4.40;;;6.20;99.90;;;;;;4883768;29;20241;-76
2023/04/14 08:13:20;;;;;;;6.13;5.00;;;6.20;99.90;;;;;;4897679;29;20292;-79
2023/04/14 08:15:48;;;;;;;5.97;5.17;;;6.10;99.90;;;;;;4896611;29;20197;-77
2023/04/14 08:18:17;;;;;;;6.27;4.90;;;6.20;99.90;;;;;;4916582;29;20236;-79
2023/04/14 08:20:45;;;;;;;5.43;4.93;;;6.00;99.90;;;;;;4920746;29;20216;-75
2023/04/14 08:23:14;;;;;;;6.30;5.60;;;5.90;99.90;;;;;;4905260;29;20631;-76
2023/04/14 08:25:43;;;;;;;7.03;5.90;;;5.90;99.90;;;;;;4888057;29;20230;-77
2023/04/14 08:28:11;;;;;;;6.60;5.57;;;5.90;99.90;;;;;;4894725;29;20270;-78
2023/04/14 08:30:41;;;;;;;7.27;5.13;;;5.90;99.90;;;;;;4878913;29;20270;-75
2023/04/14 08:33:09;;;;;;;5.17;4.50;;;6.00;99.90;;;;;;4878487;29;20210;-78
2023/04/14 08:35:37;;;;;;;7.37;5.40;;;5.90;99.90;;;;;;4878399;29;20222;-78
2023/04/14 08:38:10;;;;;;;6.17;5.57;;;5.90;99.90;;;;;;4879170;29;20202;-76
2023/04/14 08:40:40;;;;;;;6.70;6.00;;;6.00;99.90;;;;;;4878761;29;20237;-75
2023/04/14 08:43:08;;;;;;;7.63;5.90;;;6.00;99.90;;;;;;4885544;29;20266;-78
2023/04/14 08:45:41;;;;;;;7.37;5.90;;;5.90;99.90;;;;;;4878867;29;20254;-77
2023/04/14 08:48:11;;;;;;;7.63;6.07;;;5.90;99.90;;;;;;4879023;29;20293;-75
2023/04/14 08:50:49;;;;;;;6.97;5.00;;;5.90;99.90;;;;;;4878737;29;20641;-75
2023/04/14 08:53:20;;;;;;;7.27;4.37;;;5.90;99.90;;;;;;4878700;29;20618;-77
2023/04/14 08:55:50;;;;;;;4.20;3.80;;;5.90;99.90;;;;;;4878624;29;20208;-77
2023/04/14 08:58:19;;;;;;;5.47;4.13;;;6.00;99.90;;;;;;4878284;29;20742;-76
2023/04/14 09:00:51;;;;;;;6.83;4.30;;;6.00;99.90;;;;;;4879004;29;20214;-76
2023/04/14 09:03:20;;;;;;;4.70;4.17;;;6.20;99.90;;;;;;4878669;29;20614;-76
2023/04/14 09:05:49;;;;;;;4.17;3.73;;;6.20;99.90;;;;;;4878759;29;20234;-77
2023/04/14 09:08:17;;;;;;;4.93;4.03;;;6.20;99.90;;;;;;4878833;29;20455;-77
2023/04/14 09:10:46;;;;;;;5.20;4.47;;;6.50;99.90;;;;;;4893754;29;20308;-75
2023/04/14 09:13:19;;;;;;;5.33;4.40;;;6.60;99.90;;;;;;4897309;29;20333;-75
2023/04/14 09:15:50;;;;;;;5.27;4.60;;;6.70;99.90;;;;;;4898278;29;20197;-75
2023/04/14 09:18:18;;;;;;;5.50;4.83;;;6.70;99.90;;;;;;4881921;29;20210;-74
2023/04/14 09:20:47;;;;;;;5.40;4.07;;;6.60;99.90;;;;;;4880264;29;20296;-75
2023/04/14 09:23:36;;;;;;;5.80;4.00;;;6.60;99.90;;;;;;4879616;29;20560;-75
2023/04/14 09:26:08;;;;;;;5.03;4.00;;;6.60;99.90;;;;;;4880155;29;20244;-74
2023/04/14 09:28:36;;;;;;;5.27;3.87;;;6.60;99.90;;;;;;4878211;29;20285;-76
2023/04/14 09:31:06;;;;;;;5.83;3.97;;;6.70;99.90;;;;;;4889759;29;20223;-77
2023/04/14 09:33:40;;;;;;;4.17;3.43;;;6.70;99.90;;;;;;4896990;29;20210;-78
2023/04/14 09:36:18;;;;;;;4.43;3.23;;;6.70;99.90;;;;;;4886512;29;20298;-77
2023/04/14 09:38:47;;;;;;;3.80;3.30;;;6.60;99.90;;;;;;4903610;29;20605;-78
2023/04/14 09:41:20;;;;;;;3.97;3.30;;;6.50;99.90;;;;;;4896474;29;20681;-76
2023/04/14 09:43:49;;;;;;;8.33;4.90;;;6.30;99.90;;;;;;4912916;29;20613;-78
2023/04/14 09:46:19;;;;;;;5.63;4.77;;;6.20;99.90;;;;;;4891630;29;20260;-77
2023/04/14 09:48:52;;;;;;;4.87;3.77;;;6.20;99.90;;;;;;4900667;29;20215;-77
2023/04/14 09:51:27;;;;;;;10.03;7.70;;;6.20;99.90;;;;;;4900135;29;20213;-77
2023/04/14 09:53:55;;;;;;;5.57;4.80;;;6.20;99.90;;;;;;4895850;29;20252;-75
2023/04/14 09:56:27;;;;;;;6.93;5.27;;;6.30;99.90;;;;;;4888286;29;20210;-78
2023/04/14 09:58:59;;;;;;;5.07;3.87;;;6.50;99.90;;;;;;4886113;29;20238;-77
2023/04/14 10:01:32;;;;;;;6.73;6.00;;;6.40;99.90;;;;;;4889158;29;20224;-79
2023/04/14 10:04:02;;;;;;;7.97;5.00;;;6.50;99.90;;;;;;4881393;29;20216;-76
2023/04/14 10:06:31;;;;;;;7.67;5.00;;;6.70;99.90;;;;;;4881119;29;20569;-76
2023/04/14 10:09:01;;;;;;;6.53;4.67;;;6.70;99.90;;;;;;4893170;29;20209;-77
2023/04/14 10:11:32;;;;;;;4.17;3.40;;;6.90;99.90;;;;;;4883209;29;20214;-79
2023/04/14 10:14:02;;;;;;;5.17;3.83;;;6.90;99.90;;;;;;4880888;29;20253;-79
2023/04/14 10:16:33;;;;;;;8.53;6.60;;;7.10;99.90;;;;;;4881027;29;20222;-78
2023/04/14 10:19:02;;;;;;;4.00;3.60;;;7.20;99.90;;;;;;4889233;29;20213;-78
2023/04/14 10:21:31;;;;;;;6.67;3.80;;;7.20;99.90;;;;;;4884525;29;20218;-77
2023/04/14 10:24:00;;;;;;;4.83;3.70;;;7.30;99.90;;;;;;4881059;29;20218;-78
2023/04/14 10:26:28;;;;;;;5.67;4.63;;;7.50;99.90;;;;;;4880559;29;20324;-77
2023/04/14 10:28:57;;;;;;;6.23;5.10;;;7.50;99.90;;;;;;4881077;29;20246;-77
2023/04/14 10:31:31;;;;;;;3.83;3.53;;;7.60;99.90;;;;;;4880917;29;20372;-77
2023/04/14 10:34:07;;;;;;;5.43;4.00;;;8.00;99.90;;;;;;4880250;29;20257;-78
2023/04/14 10:36:36;;;;;;;4.27;3.00;;;8.30;99.90;;;;;;4880769;29;20297;-77
2023/04/14 10:39:05;;;;;;;4.70;3.43;;;8.30;99.90;;;;;;4880552;29;20669;-78
2023/04/14 10:41:46;;;;;;;3.97;3.43;;;8.30;99.90;;;;;;4880664;29;20214;-76
2023/04/14 10:44:25;;;;;;;5.63;3.80;;;8.20;99.90;;;;;;4880230;29;20218;-76
2023/04/14 10:46:55;;;;;;;4.90;3.40;;;8.10;99.90;;;;;;4879625;29;20238;-77
2023/04/14 10:49:31;;;;;;;4.10;3.40;;;7.90;99.90;;;;;;4881911;29;20292;-78
2023/04/14 10:52:01;;;;;;;6.27;4.07;;;7.70;99.90;;;;;;4891201;29;20201;-76
2023/04/14 10:54:48;;;;;;;5.70;3.90;;;7.50;99.90;;;;;;4890879;29;20217;-77
2023/04/14 10:57:17;;;;;;;6.80;4.30;;;7.40;99.90;;;;;;4889971;29;20250;-77
2023/04/14 10:59:47;;;;;;;6.80;4.90;;;7.30;99.90;;;;;;4890701;29;20270;-76
2023/04/14 11:02:26;;;;;;;6.57;4.50;;;7.20;99.90;;;;;;4886726;29;20226;-76
2023/04/14 11:05:05;;;;;;;6.20;4.30;;;7.20;99.90;;;;;;4890135;29;20209;-76
2023/04/14 11:07:39;;;;;;;9.70;5.43;;;7.40;99.90;;;;;;4892982;29;20257;-74
2023/04/14 11:10:28;;;;;;;7.93;5.87;;;7.50;99.90;;;;;;4901531;29;20225;-75
2023/04/14 11:12:57;;;;;;;6.63;4.90;;;7.50;99.90;;;;;;4882662;29;20736;-75
2023/04/14 11:15:43;;;;;;;5.53;4.40;;;7.80;99.90;;;;;;4882009;29;20218;-74
2023/04/14 11:18:13;;;;;;;4.90;3.97;;;8.20;99.90;;;;;;4884417;29;20202;-77
2023/04/14 11:20:44;;;;;;;6.00;3.87;;;8.30;99.90;;;;;;4885467;29;20217;-79
2023/04/14 11:23:15;;;;;;;5.83;4.03;;;8.50;99.90;;;;;;4891840;29;20260;-76
2023/04/14 11:25:44;;;;;;;7.77;4.77;;;8.40;99.90;;;;;;4901769;29;20213;-78
2023/04/14 11:28:12;;;;;;;6.17;4.60;;;8.50;99.90;;;;;;4903075;29;20269;-75
2023/04/14 11:30:41;;;;;;;29.67;17.60;;;8.90;99.90;;;;;;4895989;29;20213;-76
2023/04/14 11:33:09;;;;;;;9.57;5.60;;;8.90;99.90;;;;;;4907972;29;20313;-76
2023/04/14 11:35:38;;;;;;;6.87;4.43;;;8.90;99.90;;;;;;4905403;29;20228;-76
2023/04/14 11:38:10;;;;;;;4.40;3.63;;;9.00;99.90;;;;;;4898108;29;20672;-76
2023/04/14 11:40:39;;;;;;;4.97;3.53;;;9.10;99.90;;;;;;4898281;29;20451;-78
2023/04/14 11:43:07;;;;;;;4.20;3.23;;;9.40;99.90;;;;;;4897646;29;20300;-78
2023/04/14 11:45:35;;;;;;;4.33;2.77;;;9.80;99.90;;;;;;4895813;29;20222;-76
2023/04/14 11:48:05;;;;;;;5.17;3.17;;;9.90;99.90;;;;;;4895341;29;20710;-78
2023/04/14 11:50:37;;;;;;;4.07;2.97;;;9.80;99.90;;;;;;4897742;29;20241;-79
2023/04/14 11:53:09;;;;;;;6.37;3.00;;;9.60;99.90;;;;;;4897575;29;20265;-77
2023/04/14 11:55:41;;;;;;;4.10;3.00;;;9.50;99.90;;;;;;4891344;29;20212;-80
2023/04/14 11:58:09;;;;;;;3.20;2.33;;;9.30;99.90;;;;;;4897618;29;20248;-77
2023/04/14 12:00:38;;;;;;;3.10;2.53;;;9.20;99.90;;;;;;4878841;29;20603;-76
2023/04/14 12:03:07;;;;;;;4.90;2.87;;;9.30;99.90;;;;;;4890910;29;20308;-77
2023/04/14 12:05:36;;;;;;;3.77;2.50;;;9.40;99.90;;;;;;4886195;29;20312;-77
2023/04/14 12:08:07;;;;;;;4.33;2.80;;;9.60;99.90;;;;;;4897544;29;20233;-76
2023/04/14 12:10:41;;;;;;;4.20;2.50;;;9.60;99.90;;;;;;4890272;29;20642;-75
2023/04/14 12:13:11;;;;;;;5.30;2.60;;;9.70;99.90;;;;;;4896912;29;20217;-76
2023/04/14 12:15:41;;;;;;;3.37;2.20;;;9.90;99.90;;;;;;4897739;29;20300;-77
2023/04/14 12:18:12;;;;;;;3.77;2.20;;;10.00;99.90;;;;;;4891513;29;20645;-76
2023/04/14 12:20:42;;;;;;;2.53;1.67;;;9.90;99.90;;;;;;4905055;29;20205;-73
2023/04/14 12:23:11;;;;;;;2.70;1.90;;;9.90;99.90;;;;;;4896731;29;20261;-76
2023/04/14 12:25:40;;;;;;;3.37;2.17;;;9.90;99.90;;;;;;4897044;29;20213;-74
2023/04/14 12:28:09;;;;;;;2.40;2.20;;;10.00;99.90;;;;;;4895366;29;20315;-77
2023/04/14 12:30:37;;;;;;;2.77;2.20;;;9.70;99.90;;;;;;4885878;29;20214;-75
2023/04/14 12:33:10;;;;;;;2.90;2.33;;;9.80;99.90;;;;;;4884217;29;20214;-73
2023/04/14 12:35:40;;;;;;;3.83;2.30;;;9.90;99.90;;;;;;4896670;29;20206;-77
2023/04/14 12:38:12;;;;;;;5.20;4.00;;;9.80;99.90;;;;;;4897581;29;20300;-75
2023/04/14 12:40:44;;;;;;;3.03;2.50;;;9.70;99.90;;;;;;4893750;29;20224;-75
2023/04/14 12:43:13;;;;;;;6.00;2.80;;;9.50;99.90;;;;;;4887910;29;20216;-75
2023/04/14 12:45:42;;;;;;;4.27;3.10;;;9.30;99.90;;;;;;4894201;29;20668;-76
2023/04/14 12:48:12;;;;;;;4.20;2.77;;;9.10;99.90;;;;;;4889110;29;20287;-77
2023/04/14 12:50:40;;;;;;;4.67;2.73;;;9.00;99.90;;;;;;4895009;29;20214;-76
2023/04/14 12:53:24;;;;;;;4.20;2.70;;;9.00;99.90;;;;;;4896554;29;20312;-75
2023/04/14 12:56:09;;;;;;;4.23;2.60;;;9.10;99.90;;;;;;4894573;29;20248;-76
2023/04/14 12:58:37;;;;;;;5.20;2.63;;;9.20;99.90;;;;;;4896955;29;20201;-78
2023/04/14 13:01:06;;;;;;;4.17;2.70;;;9.30;99.90;;;;;;4896488;29;20221;-77
2023/04/14 13:03:43;;;;;;;4.50;2.83;;;9.10;99.90;;;;;;4895898;29;20681;-77
2023/04/14 13:06:15;;;;;;;5.10;3.37;;;9.00;99.90;;;;;;4896915;29;20219;-75
2023/04/14 13:08:44;;;;;;;4.13;3.37;;;8.80;99.90;;;;;;4896779;29;20253;-75
2023/04/14 13:11:15;;;;;;;6.17;3.40;;;8.50;99.90;;;;;;4896850;29;20217;-76